Time;durP1;ratioP1;P1;durP2;ratioP2;P2;SDS_P1;SDS_P2;PMS_P1;PMS_P2;Temp;Humidity;BMP_temperature;BMP_pressure;BME280_temperature;BME280_humidity;BME280_pressure;Samples;Min_cycle;Max_cycle;Signal;HPM_P1;HPM_P2
2023/10/24 00:01:02;;;;;;;11.45;3.67;;;11.50;99.90;;;;;;5032578;28;20021;-51
2023/10/24 00:03:27;;;;;;;7.07;3.17;;;11.40;99.90;;;;;;5032484;28;20030;-48
2023/10/24 00:05:53;;;;;;;8.02;2.88;;;11.40;99.90;;;;;;5032408;28;20045;-49
2023/10/24 00:08:19;;;;;;;7.43;2.95;;;11.40;99.90;;;;;;5032410;28;20028;-50
2023/10/24 00:10:44;;;;;;;5.63;2.88;;;11.40;99.90;;;;;;5032398;28;20069;-52
2023/10/24 00:13:10;;;;;;;7.75;3.25;;;11.40;99.90;;;;;;5031766;28;20021;-55
2023/10/24 00:15:36;;;;;;;7.65;2.85;;;11.40;99.90;;;;;;5032447;28;20072;-49
2023/10/24 00:18:01;;;;;;;4.95;2.90;;;11.40;99.90;;;;;;5032338;28;20041;-48
2023/10/24 00:20:27;;;;;;;8.18;3.35;;;11.40;99.90;;;;;;5032396;28;20033;-46
2023/10/24 00:22:53;;;;;;;7.72;4.18;;;11.40;99.90;;;;;;5032260;28;20038;-52
2023/10/24 00:25:18;;;;;;;5.68;2.80;;;11.40;99.90;;;;;;5032206;28;20057;-47
2023/10/24 00:27:45;;;;;;;9.48;3.33;;;11.40;99.90;;;;;;5032061;28;20021;-46
2023/10/24 00:30:10;;;;;;;8.35;3.35;;;11.30;99.90;;;;;;5032071;28;20453;-46
2023/10/24 00:32:36;;;;;;;6.53;3.15;;;11.30;99.90;;;;;;5032009;28;20040;-48
2023/10/24 00:35:02;;;;;;;8.90;3.85;;;11.30;99.90;;;;;;5031735;28;20030;-46
2023/10/24 00:37:28;;;;;;;6.28;2.75;;;11.30;99.90;;;;;;5031877;28;20021;-52
2023/10/24 00:39:54;;;;;;;7.15;3.53;;;11.30;99.90;;;;;;5031975;28;20039;-46
2023/10/24 00:42:20;;;;;;;5.72;2.95;;;11.30;99.90;;;;;;5031767;28;20029;-52
2023/10/24 00:44:46;;;;;;;7.53;3.05;;;11.30;99.90;;;;;;5030615;28;20449;-48
2023/10/24 00:47:12;;;;;;;6.15;3.45;;;11.30;99.90;;;;;;5031771;28;20032;-51
2023/10/24 00:49:38;;;;;;;11.48;4.18;;;11.30;99.90;;;;;;5031599;28;20022;-50
2023/10/24 00:52:04;;;;;;;6.68;3.28;;;11.30;99.90;;;;;;5031583;28;20072;-52
2023/10/24 00:54:33;;;;;;;8.02;3.00;;;11.30;99.90;;;;;;5031523;28;20033;-46
2023/10/24 00:56:58;;;;;;;5.10;2.70;;;11.30;99.90;;;;;;5031957;28;20025;-46
2023/10/24 00:59:26;;;;;;;7.05;3.22;;;11.40;99.90;;;;;;5031561;28;20025;-46
2023/10/24 01:01:52;;;;;;;7.28;3.30;;;11.30;99.90;;;;;;5031385;28;20025;-46
2023/10/24 01:04:20;;;;;;;5.35;2.90;;;11.20;99.90;;;;;;5031421;28;20033;-49
2023/10/24 01:06:46;;;;;;;6.70;2.95;;;11.20;99.90;;;;;;5031587;28;20028;-48
2023/10/24 01:09:11;;;;;;;8.05;2.72;;;11.20;99.90;;;;;;5031451;28;20109;-46
2023/10/24 01:11:37;;;;;;;4.68;2.72;;;11.20;99.90;;;;;;5031551;28;20028;-49
2023/10/24 01:14:03;;;;;;;6.40;2.92;;;11.20;99.90;;;;;;5031228;28;20033;-47
2023/10/24 01:16:33;;;;;;;9.93;2.85;;;11.20;99.90;;;;;;5031284;28;20397;-46
2023/10/24 01:18:58;;;;;;;;;;;11.20;99.90;;;;;;5031636;28;20025;-53
2023/10/24 01:21:24;;;;;;;5.28;2.83;;;11.20;99.90;;;;;;5030993;28;19905;-47
2023/10/24 01:23:50;;;;;;;8.68;2.95;;;11.20;99.90;;;;;;5030498;28;20033;-51
2023/10/24 01:26:17;;;;;;;8.60;2.50;;;11.20;99.90;;;;;;5030772;28;20108;-48
2023/10/24 01:28:43;;;;;;;6.13;2.72;;;11.20;99.90;;;;;;5031055;28;20031;-46
2023/10/24 01:31:08;;;;;;;7.72;3.20;;;11.20;99.90;;;;;;5030730;28;20044;-50
2023/10/24 01:33:34;;;;;;;6.55;2.47;;;11.20;99.90;;;;;;5030771;28;20053;-53
2023/10/24 01:35:59;;;;;;;5.75;2.58;;;11.20;99.90;;;;;;5030951;28;20060;-55
2023/10/24 01:38:26;;;;;;;7.53;2.88;;;11.20;99.90;;;;;;5030707;28;20033;-46
2023/10/24 01:40:51;;;;;;;6.00;2.78;;;11.20;99.90;;;;;;5030979;28;20025;-51
2023/10/24 01:43:17;;;;;;;5.20;2.20;;;11.20;99.90;;;;;;5030897;28;20044;-47
2023/10/24 01:45:42;;;;;;;6.53;2.72;;;11.20;99.90;;;;;;5030703;28;20032;-49
2023/10/24 01:48:08;;;;;;;7.70;2.67;;;11.20;99.90;;;;;;5030674;28;20033;-46
2023/10/24 01:50:33;;;;;;;5.75;2.75;;;11.20;99.90;;;;;;5029202;28;20117;-48
2023/10/24 01:52:59;;;;;;;6.90;2.55;;;11.20;99.90;;;;;;5030597;28;20530;-46
2023/10/24 01:55:25;;;;;;;4.85;2.65;;;11.20;99.90;;;;;;5030259;28;20036;-47
2023/10/24 01:57:50;;;;;;;7.43;2.83;;;11.20;99.90;;;;;;5030774;28;20022;-49
2023/10/24 02:00:16;;;;;;;3.83;2.40;;;11.10;99.90;;;;;;5030584;28;20055;-50
2023/10/24 02:02:42;;;;;;;8.25;2.28;;;11.10;99.90;;;;;;5030432;28;20018;-52
2023/10/24 02:05:08;;;;;;;7.22;2.53;;;11.20;99.90;;;;;;5030645;28;20025;-53
2023/10/24 02:07:33;;;;;;;4.68;2.17;;;11.10;99.90;;;;;;5030403;28;20107;-58
2023/10/24 02:09:59;;;;;;;6.40;2.55;;;11.20;99.90;;;;;;5030613;28;20057;-47
2023/10/24 02:12:25;;;;;;;5.60;2.75;;;11.20;99.90;;;;;;5030914;28;20030;-46
2023/10/24 02:14:51;;;;;;;8.45;2.20;;;11.20;99.90;;;;;;5030593;28;20037;-54
2023/10/24 02:17:17;;;;;;;7.75;2.80;;;11.20;99.90;;;;;;5030467;28;20025;-50
2023/10/24 02:19:43;;;;;;;4.95;2.13;;;11.20;99.90;;;;;;5028896;28;20032;-47
2023/10/24 02:22:08;;;;;;;5.03;2.95;;;11.30;99.90;;;;;;5030294;28;20028;-53
2023/10/24 02:24:34;;;;;;;5.78;2.45;;;11.30;99.90;;;;;;5030280;28;20029;-47
2023/10/24 02:27:00;;;;;;;5.20;2.60;;;11.20;99.90;;;;;;5030517;28;20033;-51
2023/10/24 02:29:25;;;;;;;5.78;2.03;;;11.30;99.90;;;;;;5030391;28;20025;-46
2023/10/24 02:31:51;;;;;;;6.63;2.15;;;11.20;99.90;;;;;;5030206;28;20029;-47
2023/10/24 02:34:17;;;;;;;5.28;2.13;;;11.20;99.90;;;;;;5030111;28;20566;-47
2023/10/24 02:36:42;;;;;;;5.25;2.10;;;11.20;99.90;;;;;;5033025;28;20100;-51
2023/10/24 02:39:26;;;;;;;3.03;1.77;;;11.20;99.90;;;;;;5033237;28;20053;-48
2023/10/24 02:41:52;;;;;;;6.30;1.98;;;11.30;99.90;;;;;;5034030;28;20022;-51
2023/10/24 02:44:19;;;;;;;4.93;1.63;;;11.30;99.90;;;;;;5034168;28;20037;-49
2023/10/24 02:46:45;;;;;;;3.55;1.80;;;11.30;99.90;;;;;;5034212;28;20037;-49
2023/10/24 02:49:10;;;;;;;3.92;1.73;;;11.30;99.90;;;;;;5034329;28;20093;-49
2023/10/24 02:51:36;;;;;;;3.63;1.52;;;11.20;99.90;;;;;;5034064;28;20567;-45
2023/10/24 02:54:02;;;;;;;3.30;1.50;;;11.30;99.90;;;;;;5032739;28;20028;-46
2023/10/24 02:56:28;;;;;;;4.90;1.50;;;11.30;99.90;;;;;;5033977;28;20056;-49
2023/10/24 02:58:53;;;;;;;2.70;1.40;;;11.30;99.90;;;;;;5033656;28;20056;-54
2023/10/24 03:01:19;;;;;;;3.75;1.83;;;11.40;99.90;;;;;;5033904;28;20116;-55
2023/10/24 03:03:44;;;;;;;4.45;1.70;;;11.30;99.90;;;;;;5033552;28;20104;-46
2023/10/24 03:06:17;;;;;;;3.88;1.63;;;11.30;99.90;;;;;;5033830;28;20021;-49
2023/10/24 03:08:43;;;;;;;5.03;1.80;;;11.30;99.90;;;;;;5033731;28;20384;-48
2023/10/24 03:11:09;;;;;;;2.70;1.50;;;11.30;99.90;;;;;;5033722;28;20022;-50
2023/10/24 03:13:35;;;;;;;3.55;1.67;;;11.30;99.90;;;;;;5033588;28;20365;-46
2023/10/24 03:16:04;;;;;;;4.05;1.90;;;11.20;99.90;;;;;;5033388;28;20034;-50
2023/10/24 03:18:30;;;;;;;2.13;1.42;;;11.20;99.90;;;;;;5033485;28;20021;-48
2023/10/24 03:20:57;;;;;;;1.38;1.10;;;11.20;99.90;;;;;;5033383;28;20028;-50
2023/10/24 03:23:22;;;;;;;2.17;1.27;;;11.20;99.90;;;;;;5033372;28;20014;-51
2023/10/24 03:25:48;;;;;;;5.65;1.48;;;11.20;99.90;;;;;;5033260;28;20048;-46
2023/10/24 03:28:14;;;;;;;4.25;1.20;;;11.20;99.90;;;;;;5033234;28;20061;-45
2023/10/24 03:30:40;;;;;;;2.95;1.50;;;11.30;99.90;;;;;;5033423;28;20388;-47
2023/10/24 03:33:06;;;;;;;2.53;1.00;;;11.30;99.90;;;;;;5033018;28;20053;-51
2023/10/24 03:35:35;;;;;;;5.05;1.40;;;11.30;99.90;;;;;;5033111;28;20837;-47
2023/10/24 03:38:03;;;;;;;4.15;1.38;;;11.30;99.90;;;;;;5033005;28;20018;-48
2023/10/24 03:40:29;;;;;;;2.58;1.45;;;11.30;99.90;;;;;;5032894;28;20036;-49
2023/10/24 03:42:55;;;;;;;4.60;1.33;;;11.30;99.90;;;;;;5032961;28;20030;-58
2023/10/24 03:45:21;;;;;;;2.97;1.23;;;11.30;99.90;;;;;;5033042;28;20026;-47
2023/10/24 03:47:49;;;;;;;1.92;1.15;;;11.30;99.90;;;;;;5032218;28;20025;-60
2023/10/24 03:50:16;;;;;;;6.15;1.73;;;11.30;99.90;;;;;;5032832;28;20240;-59
2023/10/24 03:52:42;;;;;;;4.45;1.70;;;11.30;99.90;;;;;;5032844;28;20037;-51
2023/10/24 03:55:11;;;;;;;2.97;1.60;;;11.30;99.90;;;;;;5032577;28;20059;-55
2023/10/24 03:57:41;;;;;;;3.00;1.40;;;11.30;99.90;;;;;;5033090;28;20122;-54
2023/10/24 04:00:09;;;;;;;;;;;11.30;99.90;;;;;;5033152;28;20040;-52
2023/10/24 04:02:36;;;;;;;4.40;1.60;;;11.30;99.90;;;;;;5032713;28;19906;-46
2023/10/24 04:05:03;;;;;;;3.63;1.40;;;11.30;99.90;;;;;;5032771;28;20175;-48
2023/10/24 04:07:29;;;;;;;5.05;1.30;;;11.30;99.90;;;;;;5032449;28;20065;-47
2023/10/24 04:09:56;;;;;;;2.45;1.50;;;11.30;99.90;;;;;;5032592;28;20554;-46
2023/10/24 04:12:22;;;;;;;4.82;1.60;;;11.30;99.90;;;;;;5032659;28;20112;-60
2023/10/24 04:14:47;;;;;;;6.15;1.90;;;11.40;99.90;;;;;;5031427;28;20144;-53
2023/10/24 04:17:13;;;;;;;1.80;1.30;;;11.30;99.90;;;;;;5032260;28;20465;-47
2023/10/24 04:19:38;;;;;;;4.45;1.45;;;11.40;99.90;;;;;;5032341;28;20044;-61
2023/10/24 04:22:04;;;;;;;2.97;1.55;;;11.40;99.90;;;;;;5032429;28;20830;-49
2023/10/24 04:24:29;;;;;;;3.35;1.50;;;11.40;99.90;;;;;;5032147;28;20033;-49
2023/10/24 04:26:55;;;;;;;4.85;2.05;;;11.40;99.90;;;;;;5032473;28;20028;-59
2023/10/24 04:29:21;;;;;;;2.70;1.50;;;11.40;99.90;;;;;;5032218;28;20026;-66
2023/10/24 04:31:46;;;;;;;2.88;1.30;;;11.40;99.90;;;;;;5032164;28;20539;-74
2023/10/24 04:34:12;;;;;;;3.20;1.60;;;11.40;99.90;;;;;;5031865;28;20053;-68
2023/10/24 04:36:38;;;;;;;2.70;1.60;;;11.40;99.90;;;;;;5032041;28;20056;-64
2023/10/24 04:39:03;;;;;;;3.38;1.70;;;11.40;99.90;;;;;;5030717;28;20132;-59
2023/10/24 04:41:29;;;;;;;5.53;1.67;;;11.40;99.90;;;;;;5031943;28;20026;-51
2023/10/24 04:43:55;;;;;;;6.53;2.35;;;11.30;99.90;;;;;;5031905;28;20029;-47
2023/10/24 04:46:21;;;;;;;4.43;1.88;;;11.40;99.90;;;;;;5031932;28;20465;-48
2023/10/24 04:48:46;;;;;;;2.85;1.55;;;11.40;99.90;;;;;;5031911;28;20184;-48
2023/10/24 04:51:12;;;;;;;3.83;1.50;;;11.40;99.90;;;;;;5031755;28;20550;-49
2023/10/24 04:53:38;;;;;;;2.08;1.20;;;11.40;99.90;;;;;;5031608;28;20498;-52
2023/10/24 04:56:04;;;;;;;3.15;1.60;;;11.40;99.90;;;;;;5031655;28;20518;-60
2023/10/24 04:58:30;;;;;;;5.63;1.77;;;11.40;99.90;;;;;;5031392;28;20045;-51
2023/10/24 05:00:56;;;;;;;3.95;1.67;;;11.40;99.90;;;;;;5031533;28;20029;-48
2023/10/24 05:03:21;;;;;;;3.17;1.50;;;11.50;99.90;;;;;;5031507;28;20330;-67
2023/10/24 05:05:47;;;;;;;8.35;1.77;;;11.50;99.90;;;;;;5031304;28;20033;-50
2023/10/24 05:08:13;;;;;;;4.47;1.70;;;11.50;99.90;;;;;;5031510;28;20025;-53
2023/10/24 05:10:39;;;;;;;4.13;1.95;;;11.40;99.90;;;;;;5031348;28;20396;-54
2023/10/24 05:13:04;;;;;;;3.22;1.63;;;11.50;99.90;;;;;;5031517;28;20021;-59
2023/10/24 05:15:30;;;;;;;5.10;1.20;;;11.50;99.90;;;;;;5030840;28;20443;-50
2023/10/24 05:17:56;;;;;;;1.95;1.23;;;11.50;99.90;;;;;;5031239;28;20064;-54
2023/10/24 05:20:21;;;;;;;3.63;1.10;;;11.50;99.90;;;;;;5031134;28;20026;-59
2023/10/24 05:22:47;;;;;;;5.22;1.42;;;11.60;99.90;;;;;;5030896;28;20445;-59
2023/10/24 05:25:12;;;;;;;2.55;1.50;;;11.60;99.90;;;;;;5031040;28;20038;-64
2023/10/24 05:27:38;;;;;;;3.53;1.30;;;11.60;99.90;;;;;;5030256;28;20060;-57
2023/10/24 05:30:05;;;;;;;5.82;1.55;;;11.60;99.90;;;;;;5030763;28;20029;-59
2023/10/24 05:32:30;;;;;;;4.20;1.50;;;11.60;99.90;;;;;;5030845;28;20033;-60
2023/10/24 05:34:56;;;;;;;3.85;2.17;;;11.60;99.90;;;;;;5030805;28;20489;-46
2023/10/24 05:37:21;;;;;;;2.22;1.35;;;11.60;99.90;;;;;;5030760;28;20018;-50
2023/10/24 05:39:47;;;;;;;8.90;1.63;;;11.60;99.90;;;;;;5030656;28;20060;-53
2023/10/24 05:42:13;;;;;;;4.55;1.55;;;11.70;99.90;;;;;;5030751;28;20017;-46
2023/10/24 05:44:38;;;;;;;3.55;1.80;;;11.70;99.90;;;;;;5030670;28;20164;-49
2023/10/24 05:47:04;;;;;;;2.88;1.92;;;11.70;99.90;;;;;;5030525;28;20032;-52
2023/10/24 05:49:30;;;;;;;5.60;3.03;;;11.70;99.90;;;;;;5030701;28;20100;-52
2023/10/24 05:51:55;;;;;;;6.50;2.60;;;11.60;99.90;;;;;;5030226;28;20127;-56
2023/10/24 05:54:21;;;;;;;4.60;2.47;;;11.60;99.90;;;;;;5030558;28;20171;-50
2023/10/24 05:56:46;;;;;;;6.60;3.25;;;11.60;99.90;;;;;;5030567;28;20531;-53
2023/10/24 05:59:12;;;;;;;5.30;2.67;;;11.50;99.90;;;;;;5030410;28;20025;-57
2023/10/24 06:01:37;;;;;;;7.13;2.65;;;11.50;99.90;;;;;;5030640;28;20105;-51
2023/10/24 06:04:03;;;;;;;6.72;2.92;;;11.40;99.90;;;;;;5030455;28;20025;-53
2023/10/24 06:06:29;;;;;;;4.15;2.50;;;11.30;99.90;;;;;;5030567;28;20061;-53
2023/10/24 06:08:54;;;;;;;6.63;2.95;;;11.30;99.90;;;;;;5030461;28;20065;-54
2023/10/24 06:11:20;;;;;;;8.27;2.40;;;11.30;99.90;;;;;;5030214;28;20495;-57
2023/10/24 06:13:45;;;;;;;6.13;2.25;;;11.20;99.90;;;;;;5030677;28;20116;-56
2023/10/24 06:16:13;;;;;;;4.75;2.47;;;11.20;99.90;;;;;;5030205;28;20046;-59
2023/10/24 06:18:39;;;;;;;3.75;2.20;;;11.10;99.90;;;;;;5030579;28;20025;-58
2023/10/24 06:21:08;;;;;;;3.85;2.03;;;11.10;99.90;;;;;;5030349;28;20476;-63
2023/10/24 06:23:35;;;;;;;7.13;2.28;;;11.00;99.90;;;;;;5030512;28;20029;-59
2023/10/24 06:26:01;;;;;;;4.03;1.80;;;11.00;99.90;;;;;;5030046;28;20540;-53
2023/10/24 06:28:27;;;;;;;3.40;2.00;;;10.90;99.90;;;;;;5030337;28;20052;-57
2023/10/24 06:31:04;;;;;;;6.72;1.80;;;10.90;99.90;;;;;;5030252;28;20087;-58
2023/10/24 06:33:30;;;;;;;4.47;2.03;;;10.90;99.90;;;;;;5029952;28;20046;-60
2023/10/24 06:35:57;;;;;;;4.18;2.00;;;10.80;99.90;;;;;;5030193;28;20113;-60
2023/10/24 06:38:23;;;;;;;4.70;2.17;;;10.80;99.90;;;;;;5028796;28;20423;-66
2023/10/24 06:40:49;;;;;;;4.88;2.55;;;10.70;99.90;;;;;;5030230;28;20078;-60
2023/10/24 06:43:15;;;;;;;4.45;1.77;;;10.70;99.90;;;;;;5029857;28;20468;-61
2023/10/24 06:45:42;;;;;;;6.70;3.08;;;10.80;99.90;;;;;;5030083;28;20029;-58
2023/10/24 06:48:07;;;;;;;4.32;2.15;;;10.80;99.90;;;;;;5028713;28;20545;-57
2023/10/24 06:50:34;;;;;;;4.35;2.60;;;10.80;99.90;;;;;;5029795;28;20104;-54
2023/10/24 06:52:59;;;;;;;4.30;2.20;;;10.70;99.90;;;;;;5030036;28;20160;-57
2023/10/24 06:55:25;;;;;;;3.20;1.90;;;10.70;99.90;;;;;;5029957;28;20109;-49
2023/10/24 06:57:51;;;;;;;5.95;2.30;;;10.70;99.90;;;;;;5030053;28;20029;-50
2023/10/24 07:00:17;;;;;;;4.35;2.58;;;10.60;99.90;;;;;;5029671;28;20104;-58
2023/10/24 07:02:42;;;;;;;5.75;2.22;;;10.60;99.90;;;;;;5029824;28;20033;-54
2023/10/24 07:05:08;;;;;;;4.63;1.90;;;10.60;99.90;;;;;;5030014;28;20034;-51
2023/10/24 07:07:35;;;;;;;4.13;2.40;;;10.60;99.90;;;;;;5029952;28;20053;-57
2023/10/24 07:10:01;;;;;;;3.55;1.90;;;10.70;99.90;;;;;;5029929;28;20064;-55
2023/10/24 07:12:27;;;;;;;4.28;2.40;;;10.70;99.90;;;;;;5029751;28;20045;-50
2023/10/24 07:14:53;;;;;;;4.85;2.50;;;10.70;99.90;;;;;;5029937;28;20067;-51
2023/10/24 07:17:19;;;;;;;6.78;2.78;;;10.80;99.90;;;;;;5029463;28;20041;-60
2023/10/24 07:19:45;;;;;;;3.58;2.13;;;10.70;99.90;;;;;;5030111;28;20037;-58
2023/10/24 07:22:11;;;;;;;4.50;2.35;;;10.70;99.90;;;;;;5029808;28;20026;-58
2023/10/24 07:24:36;;;;;;;3.97;2.22;;;10.70;99.90;;;;;;5033321;28;20242;-56
2023/10/24 07:27:03;;;;;;;5.43;2.05;;;10.80;99.90;;;;;;5033322;28;20386;-57
2023/10/24 07:29:29;;;;;;;4.55;2.10;;;10.70;99.90;;;;;;5032918;28;20133;-58
2023/10/24 07:31:55;;;;;;;4.20;2.28;;;10.70;99.90;;;;;;5033116;28;20112;-50
2023/10/24 07:34:21;;;;;;;4.50;2.35;;;10.60;99.90;;;;;;5032824;28;20041;-49
2023/10/24 07:36:47;;;;;;;5.22;2.80;;;10.60;99.90;;;;;;5033195;28;20129;-49
2023/10/24 07:39:16;;;;;;;5.32;2.42;;;10.70;99.90;;;;;;5032959;28;20033;-48
2023/10/24 07:41:42;;;;;;;5.20;2.92;;;10.60;99.90;;;;;;5031516;28;20034;-48
2023/10/24 07:44:07;;;;;;;8.02;3.50;;;10.60;99.90;;;;;;5032805;28;20047;-58
2023/10/24 07:46:33;;;;;;;6.47;2.78;;;10.60;99.90;;;;;;5032459;28;20511;-57
2023/10/24 07:48:59;;;;;;;10.50;3.80;;;10.50;99.90;;;;;;5032684;28;20026;-58
2023/10/24 07:51:31;;;;;;;6.75;3.83;;;10.60;99.90;;;;;;5032688;28;20037;-58
2023/10/24 07:53:57;;;;;;;6.55;3.72;;;10.70;99.90;;;;;;5032674;28;20036;-58
2023/10/24 07:56:23;;;;;;;7.80;4.22;;;10.60;99.90;;;;;;5032539;28;20048;-58
2023/10/24 07:58:49;;;;;;;8.00;3.42;;;10.70;99.90;;;;;;5031538;28;20477;-52
2023/10/24 08:01:15;;;;;;;7.88;3.70;;;10.80;99.90;;;;;;5027502;28;20044;-53
2023/10/24 08:03:40;;;;;;;8.65;3.45;;;10.80;99.90;;;;;;5027433;28;20119;-50
2023/10/24 08:06:06;;;;;;;7.80;3.65;;;10.90;99.90;;;;;;5032467;28;20029;-51
2023/10/24 08:08:32;;;;;;;7.93;3.58;;;10.80;99.90;;;;;;5032090;28;20022;-50
2023/10/24 08:10:57;;;;;;;6.30;3.50;;;11.00;99.90;;;;;;5032068;28;20037;-49
2023/10/24 08:13:23;;;;;;;7.35;4.00;;;10.90;99.90;;;;;;5032188;28;20022;-52
2023/10/24 08:15:52;;;;;;;8.25;3.72;;;11.00;99.90;;;;;;5032003;28;20064;-53
2023/10/24 08:18:18;;;;;;;10.55;4.53;;;11.10;99.90;;;;;;5032196;28;20053;-48
2023/10/24 08:20:44;;;;;;;9.98;4.57;;;11.20;99.90;;;;;;5032318;28;20087;-56
2023/10/24 08:23:11;;;;;;;8.98;4.28;;;11.30;99.90;;;;;;5031689;28;20013;-57
2023/10/24 08:25:37;;;;;;;7.63;3.95;;;11.60;99.90;;;;;;5031931;28;20440;-53
2023/10/24 08:28:03;;;;;;;7.68;4.00;;;11.80;99.90;;;;;;5031869;28;20022;-47
2023/10/24 08:30:31;;;;;;;6.80;3.72;;;11.90;99.90;;;;;;5031885;28;20025;-51
2023/10/24 08:32:57;;;;;;;7.93;4.35;;;12.00;99.90;;;;;;5031539;28;20057;-47
2023/10/24 08:35:23;;;;;;;6.68;3.33;;;12.40;99.90;;;;;;5031374;28;20041;-46
2023/10/24 08:37:49;;;;;;;8.70;3.88;;;12.80;99.90;;;;;;5031614;28;20486;-46
2023/10/24 08:40:15;;;;;;;7.30;4.13;;;13.30;99.90;;;;;;5031667;28;20049;-47
2023/10/24 08:42:41;;;;;;;6.43;3.75;;;13.90;99.90;;;;;;5031594;28;20105;-47
2023/10/24 08:45:08;;;;;;;5.43;3.00;;;14.40;99.90;;;;;;5030701;28;20025;-51
2023/10/24 08:47:35;;;;;;;4.75;2.72;;;15.20;99.90;;;;;;5029629;28;20031;-55
2023/10/24 08:50:01;;;;;;;3.17;1.95;;;15.80;99.90;;;;;;5031543;28;20037;-54
2023/10/24 08:52:28;;;;;;;5.82;2.00;;;16.40;99.90;;;;;;5026310;28;20018;-53
2023/10/24 08:54:54;;;;;;;6.10;1.65;;;16.80;99.90;;;;;;5025528;28;20497;-52
2023/10/24 08:57:26;;;;;;;3.65;1.75;;;17.30;99.90;;;;;;5031013;28;20071;-52
2023/10/24 08:59:54;;;;;;;6.30;2.38;;;17.90;99.90;;;;;;5025570;28;20049;-50
2023/10/24 09:02:21;;;;;;;2.53;1.38;;;17.90;99.90;;;;;;5031340;28;20480;-50
2023/10/24 09:04:49;;;;;;;2.55;1.50;;;18.40;99.90;;;;;;5030965;28;20025;-56
2023/10/24 09:07:15;;;;;;;3.00;1.50;;;18.20;99.90;;;;;;5031187;28;20021;-52
2023/10/24 09:09:40;;;;;;;3.17;1.48;;;18.60;99.90;;;;;;5030942;28;20445;-50
2023/10/24 09:12:08;;;;;;;1.73;1.08;;;18.70;99.90;;;;;;5026024;28;20041;-54
2023/10/24 09:14:34;;;;;;;2.00;0.90;;;18.80;99.90;;;;;;5031420;28;20052;-56
2023/10/24 09:17:03;;;;;;;3.35;1.17;;;19.20;99.90;;;;;;5031269;28;20473;-56
2023/10/24 09:19:29;;;;;;;2.25;1.00;;;19.20;99.90;;;;;;5031260;28;20029;-54
2023/10/24 09:21:56;;;;;;;2.15;1.10;;;19.70;99.90;;;;;;5030970;28;20032;-50
2023/10/24 09:24:22;;;;;;;1.48;1.00;;;19.60;99.90;;;;;;5030768;28;20033;-49
2023/10/24 09:26:55;;;;;;;2.05;1.20;;;19.80;99.90;;;;;;5031056;28;20104;-53
2023/10/24 09:29:24;;;;;;;1.63;0.90;;;20.20;99.90;;;;;;5026578;28;20020;-51
2023/10/24 09:31:51;;;;;;;2.33;1.08;;;20.30;99.90;;;;;;5030929;28;20054;-52
2023/10/24 09:34:17;;;;;;;3.15;1.00;;;20.60;99.90;;;;;;5030507;28;20041;-49
2023/10/24 09:36:44;;;;;;;2.10;0.60;;;20.90;99.90;;;;;;5030713;28;20421;-52
2023/10/24 09:39:13;;;;;;;1.98;0.90;;;20.40;99.90;;;;;;5030741;28;20013;-49
2023/10/24 09:41:46;;;;;;;;;;;19.90;99.90;;;;;;5031210;28;20053;-51
2023/10/24 09:44:12;;;;;;;1.60;0.90;;;19.20;99.90;;;;;;5030772;28;20326;-51
2023/10/24 09:46:38;;;;;;;0.90;0.70;;;19.50;99.90;;;;;;5029745;28;20033;-54
2023/10/24 09:49:05;;;;;;;1.58;0.77;;;20.20;99.90;;;;;;5030580;28;20071;-55
2023/10/24 09:51:35;;;;;;;6.25;1.02;;;19.80;99.90;;;;;;5030610;28;20025;-51
2023/10/24 09:54:02;;;;;;;1.55;0.73;;;20.50;99.90;;;;;;5030886;28;20025;-54
2023/10/24 09:56:28;;;;;;;1.80;0.80;;;20.60;99.90;;;;;;5030224;28;20454;-55
2023/10/24 09:58:54;;;;;;;3.70;1.77;;;20.80;99.90;;;;;;5030617;28;20033;-54
2023/10/24 10:01:21;;;;;;;1.92;0.77;;;20.90;99.90;;;;;;5030510;28;20384;-57
2023/10/24 10:03:53;;;;;;;2.38;0.77;;;21.20;99.90;;;;;;5030201;28;20029;-51
2023/10/24 10:06:19;;;;;;;2.40;1.08;;;21.10;99.90;;;;;;5030408;28;20347;-57
2023/10/24 10:08:46;;;;;;;2.17;0.90;;;21.20;99.90;;;;;;5030478;28;20404;-57
2023/10/24 10:11:13;;;;;;;1.15;0.50;;;21.10;99.90;;;;;;5030469;28;20056;-57
2023/10/24 10:13:46;;;;;;;0.60;0.50;;;21.80;99.90;;;;;;5030535;28;20067;-56
2023/10/24 10:16:30;;;;;;;0.85;0.60;;;22.60;99.90;;;;;;5029791;28;20033;-56
2023/10/24 10:19:15;;;;;;;1.73;0.60;;;23.30;99.90;;;;;;5029750;28;20032;-53
2023/10/24 10:22:08;;;;;;;2.47;0.68;;;23.60;99.90;;;;;;5030073;28;20029;-57
2023/10/24 10:24:52;;;;;;;4.55;0.93;;;23.80;99.90;;;;;;5030411;28;20060;-53
2023/10/24 10:27:39;;;;;;;1.88;0.70;;;24.00;99.90;;;;;;5030282;28;20026;-54
2023/10/24 10:30:18;;;;;;;2.72;0.70;;;24.00;99.90;;;;;;5030531;28;20060;-61
2023/10/24 10:33:05;;;;;;;2.20;0.63;;;24.10;99.90;;;;;;5030230;28;20052;-52
2023/10/24 10:35:55;;;;;;;0.70;0.40;;;24.70;99.90;;;;;;5026954;28;20061;-52
2023/10/24 10:38:40;;;;;;;1.63;0.50;;;24.00;99.90;;;;;;5030131;28;20061;-53
2023/10/24 10:41:23;;;;;;;1.55;0.60;;;24.50;99.90;;;;;;5030231;28;20551;-45
2023/10/24 10:43:49;;;;;;;3.20;0.52;;;24.60;99.90;;;;;;5029926;28;20079;-49
2023/10/24 10:46:19;;;;;;;2.50;0.80;;;25.00;99.90;;;;;;5030233;28;20037;-48
2023/10/24 10:48:48;;;;;;;1.65;0.47;;;25.10;99.90;;;;;;5030128;28;20014;-57
2023/10/24 10:51:16;;;;;;;1.85;0.40;;;24.50;99.90;;;;;;5030214;28;20025;-57
2023/10/24 10:54:02;;;;;;;2.30;0.50;;;24.20;99.90;;;;;;5030084;28;20057;-56
2023/10/24 10:56:30;;;;;;;1.83;0.40;;;24.00;99.90;;;;;;5030539;28;20033;-47
2023/10/24 10:58:56;;;;;;;2.70;0.50;;;23.80;99.90;;;;;;5033659;28;20021;-47
2023/10/24 11:01:28;;;;;;;1.95;0.45;;;24.20;99.90;;;;;;5033842;28;20030;-50
2023/10/24 11:03:58;;;;;;;1.02;0.50;;;24.00;99.90;;;;;;5033809;28;20037;-52
2023/10/24 11:06:28;;;;;;;3.20;0.75;;;24.90;99.90;;;;;;5033611;28;20026;-53
2023/10/24 11:09:07;;;;;;;2.42;0.55;;;24.40;99.60;;;;;;5033696;28;20025;-48
2023/10/24 11:11:33;;;;;;;;;;;23.20;99.40;;;;;;5034142;28;20034;-52
2023/10/24 11:14:14;;;;;;;2.80;0.70;;;21.60;99.90;;;;;;5033354;28;19911;-53
2023/10/24 11:16:48;;;;;;;1.00;0.45;;;20.40;99.90;;;;;;5033435;28;20753;-48
2023/10/24 11:19:24;;;;;;;2.70;0.80;;;19.20;99.90;;;;;;5032316;28;20118;-51
2023/10/24 11:21:52;;;;;;;1.60;0.63;;;19.50;99.90;;;;;;5033365;28;20030;-55
2023/10/24 11:24:22;;;;;;;3.63;0.65;;;19.90;99.90;;;;;;5033171;28;20365;-55
2023/10/24 11:26:55;;;;;;;1.83;0.50;;;20.40;99.90;;;;;;5033247;28;20026;-54
2023/10/24 11:29:22;;;;;;;2.75;0.80;;;21.00;99.90;;;;;;5032946;28;20033;-47
2023/10/24 11:31:48;;;;;;;3.33;0.93;;;20.60;99.90;;;;;;5033209;28;20092;-52
2023/10/24 11:34:15;;;;;;;4.28;0.55;;;20.10;99.90;;;;;;5033070;28;20135;-53
2023/10/24 11:36:43;;;;;;;2.58;0.50;;;20.40;99.90;;;;;;5033063;28;20037;-51
2023/10/24 11:39:14;;;;;;;2.40;0.47;;;21.70;99.90;;;;;;5033052;28;20043;-53
2023/10/24 11:41:43;;;;;;;2.33;0.47;;;22.40;99.90;;;;;;5032861;28;20030;-52
2023/10/24 11:44:11;;;;;;;1.17;0.32;;;23.20;99.90;;;;;;5033083;28;20437;-50
2023/10/24 11:46:41;;;;;;;2.67;0.88;;;23.00;99.90;;;;;;5033062;28;20177;-55
2023/10/24 11:49:07;;;;;;;0.90;0.35;;;22.90;99.90;;;;;;5031428;28;20397;-56
2023/10/24 11:51:33;;;;;;;1.90;0.73;;;23.40;99.90;;;;;;5033036;28;20024;-45
2023/10/24 11:54:06;;;;;;;0.65;0.40;;;23.50;99.90;;;;;;5032601;28;20515;-47
2023/10/24 11:56:33;;;;;;;1.65;0.50;;;24.00;99.90;;;;;;5032280;28;20065;-46
2023/10/24 11:59:00;;;;;;;3.20;0.57;;;24.60;99.90;;;;;;5032677;28;20029;-49
2023/10/24 12:01:33;;;;;;;2.35;0.50;;;24.20;98.60;;;;;;5032566;28;20022;-46
2023/10/24 12:04:00;;;;;;;2.47;0.70;;;24.50;99.90;;;;;;5032748;28;20026;-53
2023/10/24 12:06:27;;;;;;;2.10;0.57;;;25.00;99.00;;;;;;5032507;28;20030;-55
2023/10/24 12:08:53;;;;;;;3.42;0.70;;;25.50;98.00;;;;;;5031676;28;20030;-56
2023/10/24 12:11:21;;;;;;;2.60;0.57;;;25.30;98.20;;;;;;5032536;28;20083;-49
2023/10/24 12:13:47;;;;;;;1.35;0.60;;;24.60;96.80;;;;;;5032696;28;20384;-48
2023/10/24 12:16:13;;;;;;;2.60;0.50;;;23.50;97.50;;;;;;5032165;28;20476;-49
2023/10/24 12:18:38;;;;;;;2.90;0.40;;;22.40;97.40;;;;;;5031192;28;20034;-49
2023/10/24 12:21:05;;;;;;;1.17;0.47;;;22.00;99.60;;;;;;5030916;28;20029;-46
2023/10/24 12:23:31;;;;;;;2.40;0.45;;;21.50;99.90;;;;;;5031809;28;20030;-54
2023/10/24 12:25:56;;;;;;;1.42;0.43;;;21.50;99.90;;;;;;5031997;28;20033;-50
2023/10/24 12:28:22;;;;;;;2.47;0.40;;;21.40;99.90;;;;;;5031557;28;20129;-54
2023/10/24 12:30:48;;;;;;;3.13;0.50;;;20.90;99.90;;;;;;5031590;28;20029;-57
2023/10/24 12:33:13;;;;;;;2.15;0.40;;;20.40;99.90;;;;;;5031783;28;20037;-55
2023/10/24 12:35:39;;;;;;;2.00;0.43;;;20.30;99.90;;;;;;5031588;28;20026;-45
2023/10/24 12:38:05;;;;;;;1.55;0.60;;;20.00;99.90;;;;;;5031778;28;20047;-52
2023/10/24 12:40:31;;;;;;;2.58;0.57;;;19.50;99.90;;;;;;5031389;28;20040;-50
2023/10/24 12:42:56;;;;;;;2.83;0.70;;;18.80;99.90;;;;;;5031900;28;20026;-53
2023/10/24 12:45:22;;;;;;;2.92;0.90;;;18.00;99.90;;;;;;5031941;28;20018;-51
2023/10/24 12:47:53;;;;;;;0.95;0.32;;;17.60;99.90;;;;;;5031562;28;20086;-52